METAR AND TAF INFORMATION
METAR FOR NCRG
ADDS - METARS form results

(1921 UTC 26 April 2018)
Data provider http://aviationweather.gov/adds/metars/
 
Forecast for: NCRG (RAROTONGA COOK I, WS)
Text: TAF NCRG 261711Z 2618/2718 25010KT 9999 SCT020
Forecast period: 1800 UTC 26 April 2018 to 1800 UTC 27 April 2018
Forecast type: FROM: standard forecast or significant change
Winds: from the WSW (250 degrees) at 12 MPH (10 knots; 5.2 m/s)
Visibility: 6 or more miles (10+ km)
Clouds: scattered clouds at 2000 feet AGL
Weather: no significant weather forecast for this period

 AIRPORT MAP

 RUNWAY INFORMATION
Runway 08 Runway length 7638 ft Runway width 150 ft
Runway elevation 21 ft Runway displaced threshold 400 ft Runway heading 90
Runway 26 Runway length 7638 ft Runway width 150 ft
Runway elevation 14 ft Runway displaced threshold 340 ft Runway heading 270

 AIRPORT FREQUENCIES
Type APP Name APP Frequency 118.1 MHZ
Type RDO Name RDO Frequency 342.5 MHZ
Type TWR Name TWR Frequency 118.1 MHZ

 AIRPORT NEAR NAVIGATION AIDS
Type VOR-DME Name Rarotonga Frequency 113500 KHZ
Type NDB Name Rarotonga Frequency 352 KHZ



v2.6.1